Neva Corners, Wisconsin
Current Conditions -  °F | °C
As of 11:55 AM on Friday 24 Oct 2014 (Local Time) from KAIG Reporting Station
Haze Haze  
Wind Chill: 44°   Ceiling: 300
Heat Index: 47°   Visibility: 3mi
Dew Point: 47°   Wind: 6mph
Humidity: 100%   Direction: 200°SSW
Pressure: 29.98"   Gusts: NA
Location:  45.2445°N, 89.211°W
Report Text: KAIG 241655Z AUTO 20005KT 3SM BR OVC003 08/08 A2998 RMK AO2 T00820082
Loading
Personal Weather Stations






























Interactive Weather Map
Tropical Storm Tracking
New forecast layout! Learn more

10-Day Weather Forecast

Advertisements
Track Severe Weather on mobile